Time;durP1;ratioP1;P1;durP2;ratioP2;P2;SDS_P1;SDS_P2;PMS_P1;PMS_P2;Temp;Humidity;BMP_temperature;BMP_pressure;BME280_temperature;BME280_humidity;BME280_pressure;Samples;Min_cycle;Max_cycle;Signal;HPM_P1;HPM_P2
2023/10/08 00:03:05;;;;;;;11.90;4.50;;;;;;;11.25;100.00;100301.41;105566;1267;102385;-81
2023/10/08 00:05:50;;;;;;;15.40;4.60;;;;;;;11.27;100.00;100306.54;105736;1264;97998;-82
2023/10/08 00:08:36;;;;;;;6.00;3.20;;;;;;;11.29;100.00;100302.59;105692;1267;97981;-81
2023/10/08 00:11:22;;;;;;;13.60;4.90;;;;;;;11.28;100.00;100299.83;105531;1262;97942;-82
2023/10/08 00:14:17;;;;;;;12.70;4.80;;;;;;;11.27;100.00;100297.10;105821;1266;101456;-81
2023/10/08 00:17:02;;;;;;;10.00;4.40;;;;;;;11.26;100.00;100290.28;105755;1262;99352;-82
2023/10/08 00:19:52;;;;;;;14.60;5.70;;;;;;;11.23;100.00;100280.29;105570;1267;98102;-79
2023/10/08 00:22:38;;;;;;;13.40;6.20;;;;;;;11.22;100.00;100277.07;105654;1266;98011;-80
2023/10/08 00:25:24;;;;;;;10.80;6.30;;;;;;;11.22;100.00;100267.74;105475;1263;98772;-81
2023/10/08 00:28:13;;;;;;;11.40;5.30;;;;;;;11.22;100.00;100270.34;105349;1265;101328;-82
2023/10/08 00:31:06;;;;;;;9.50;4.30;;;;;;;11.22;100.00;100276.12;105554;1263;100394;-81
2023/10/08 00:33:52;;;;;;;12.80;5.00;;;;;;;11.23;100.00;100284.38;105662;1265;99139;-81
2023/10/08 00:36:41;;;;;;;13.80;5.60;;;;;;;11.23;100.00;100296.79;105804;1265;97955;-81
2023/10/08 00:39:29;;;;;;;10.70;5.20;;;;;;;11.22;100.00;100295.38;105752;1264;97817;-82
2023/10/08 00:42:20;;;;;;;9.90;5.10;;;;;;;11.24;100.00;100281.89;105562;1264;101436;-81
2023/10/08 00:45:06;;;;;;;12.30;5.00;;;;;;;11.22;100.00;100269.36;105624;1267;99348;-81
2023/10/08 00:47:56;;;;;;;17.40;5.70;;;;;;;11.20;100.00;100276.72;105665;1264;98437;-82
2023/10/08 00:50:46;;;;;;;13.10;5.40;;;;;;;11.19;100.00;100274.33;105340;1264;112157;-81
2023/10/08 00:53:38;;;;;;;;;;;;;;;11.20;100.00;100268.36;105527;1264;98159;-80
2023/10/08 00:59:41;;;;;;;11.20;4.70;;;;;;;11.20;100.00;100281.76;105472;1263;101388;-81
2023/10/08 01:02:42;;;;;;;14.80;5.50;;;;;;;11.21;100.00;100286.46;105495;1264;98908;-81
2023/10/08 01:05:42;;;;;;;14.10;5.20;;;;;;;11.21;100.00;100291.29;105517;1264;97991;-82
2023/10/08 01:08:45;;;;;;;20.50;6.20;;;;;;;11.17;100.00;100286.02;105487;1267;99247;-81
2023/10/08 01:11:45;;;;;;;13.90;5.40;;;;;;;11.16;100.00;100279.45;105579;1264;102600;-82
2023/10/08 01:14:32;;;;;;;9.50;5.10;;;;;;;11.14;100.00;100281.43;105428;1262;99110;-81
2023/10/08 01:17:19;;;;;;;15.10;5.00;;;;;;;11.13;100.00;100278.89;105540;1267;98844;-81
2023/10/08 01:20:20;;;;;;;16.60;5.40;;;;;;;11.11;100.00;100273.88;105506;1262;98069;-82
2023/10/08 01:23:13;;;;;;;15.90;5.70;;;;;;;11.08;100.00;100261.15;105622;1262;98036;-81
2023/10/08 01:26:10;;;;;;;14.60;5.80;;;;;;;11.08;100.00;100272.83;105352;1267;102411;-82
2023/10/08 01:28:56;;;;;;;10.40;5.60;;;;;;;11.07;100.00;100269.88;105566;1262;100360;-82
2023/10/08 01:31:42;;;;;;;12.30;4.80;;;;;;;11.06;100.00;100264.68;105567;1262;97887;-80
2023/10/08 01:34:30;;;;;;;15.20;6.00;;;;;;;11.05;100.00;100280.56;105743;1262;98038;-82
2023/10/08 01:37:18;;;;;;;11.30;5.10;;;;;;;11.02;100.00;100281.66;105564;1262;97981;-83
2023/10/08 01:40:06;;;;;;;12.90;6.50;;;;;;;10.98;100.00;100283.55;105612;1266;101360;-82
2023/10/08 01:42:52;;;;;;;15.90;6.10;;;;;;;10.96;100.00;100296.70;105521;1267;100512;-82
2023/10/08 01:45:42;;;;;;;14.20;5.70;;;;;;;10.94;100.00;100306.42;105467;1266;98047;-81
2023/10/08 01:48:36;;;;;;;11.30;5.00;;;;;;;10.92;100.00;100308.60;105560;1267;97982;-81
2023/10/08 01:51:28;;;;;;;17.60;5.90;;;;;;;10.93;100.00;100315.52;105828;1262;98036;-82
2023/10/08 01:54:17;;;;;;;11.00;5.70;;;;;;;10.91;100.00;100304.46;105720;1262;103021;-82
2023/10/08 01:57:04;;;;;;;16.70;6.00;;;;;;;10.90;100.00;100298.67;105669;1264;99877;-81
2023/10/08 01:59:49;;;;;;;11.50;5.50;;;;;;;10.90;100.00;100302.23;105281;1264;98060;-81
2023/10/08 02:02:35;;;;;;;14.00;5.90;;;;;;;10.91;100.00;100296.75;105465;1266;98613;-82
2023/10/08 02:05:21;;;;;;;13.40;5.50;;;;;;;10.92;100.00;100292.52;105491;1266;98595;-80
2023/10/08 02:08:06;;;;;;;17.90;6.30;;;;;;;10.93;100.00;100303.98;105384;1264;102678;-81
2023/10/08 02:10:52;;;;;;;14.20;6.10;;;;;;;10.94;100.00;100313.72;105407;1262;99196;-81
2023/10/08 02:13:38;;;;;;;18.30;6.30;;;;;;;10.93;100.00;100310.83;105586;1262;99473;-82
2023/10/08 02:16:24;;;;;;;13.30;6.20;;;;;;;10.92;100.00;100299.31;105735;1262;98145;-84
2023/10/08 02:19:10;;;;;;;12.80;5.70;;;;;;;10.92;100.00;100300.38;105608;1262;98466;-81
2023/10/08 02:21:57;;;;;;;16.40;6.40;;;;;;;10.91;100.00;100304.18;105422;1262;101507;-82
2023/10/08 02:24:43;;;;;;;16.80;7.00;;;;;;;10.86;100.00;100314.54;105561;1265;99141;-82
2023/10/08 02:27:29;;;;;;;13.60;6.40;;;;;;;10.85;100.00;100326.36;105543;1262;98594;-82
2023/10/08 02:30:15;;;;;;;16.50;5.90;;;;;;;10.84;100.00;100345.36;105389;1269;98059;-81
2023/10/08 02:33:01;;;;;;;17.40;6.50;;;;;;;10.83;100.00;100354.73;105433;1264;98527;-82
2023/10/08 02:35:49;;;;;;;12.80;6.10;;;;;;;10.81;100.00;100347.17;105725;1261;101402;-81
2023/10/08 02:38:37;;;;;;;13.10;6.40;;;;;;;10.81;100.00;100357.04;105649;1262;99218;-81
2023/10/08 02:41:24;;;;;;;16.20;6.20;;;;;;;10.80;100.00;100365.46;105707;1262;99080;-82
2023/10/08 02:44:13;;;;;;;17.30;6.60;;;;;;;10.79;100.00;100364.73;105675;1266;98054;-81
2023/10/08 02:46:59;;;;;;;13.70;6.40;;;;;;;10.77;100.00;100360.84;105533;1267;99742;-81
2023/10/08 02:49:44;;;;;;;17.00;7.20;;;;;;;10.76;100.00;100361.77;105559;1265;101346;-81
2023/10/08 02:52:30;;;;;;;16.30;6.70;;;;;;;10.77;100.00;100367.39;105544;1262;99167;-81
2023/10/08 02:55:33;;;;;;;16.30;6.90;;;;;;;10.75;100.00;100372.94;105597;1262;98639;-82
2023/10/08 02:58:19;;;;;;;14.20;6.20;;;;;;;10.72;100.00;100380.25;105477;1264;98054;-81
2023/10/08 03:01:04;;;;;;;16.80;6.30;;;;;;;10.72;100.00;100378.48;105618;1269;99677;-82
2023/10/08 03:03:54;;;;;;;12.00;6.00;;;;;;;10.73;100.00;100372.65;105449;1262;110814;-81
2023/10/08 03:06:39;;;;;;;16.30;6.80;;;;;;;10.73;100.00;100381.20;105580;1264;100966;-81
2023/10/08 03:09:32;;;;;;;12.00;6.40;;;;;;;10.74;100.00;100385.78;105657;1264;99096;-81
2023/10/08 03:12:18;;;;;;;17.90;6.20;;;;;;;10.73;100.00;100388.37;105734;1263;97943;-81
2023/10/08 03:18:14;;;;;;;19.60;6.20;;;;;;;10.71;100.00;100389.39;105597;1262;102194;-81
2023/10/08 03:21:03;;;;;;;12.90;5.90;;;;;;;10.67;100.00;100392.32;105685;1266;100438;-81
2023/10/08 03:23:58;;;;;;;10.00;5.80;;;;;;;10.66;100.00;100389.66;105558;1266;98463;-82
2023/10/08 03:26:45;;;;;;;14.90;6.30;;;;;;;10.65;100.00;100394.77;105523;1266;97969;-81
2023/10/08 03:29:30;;;;;;;15.30;6.60;;;;;;;10.64;100.00;100401.52;105363;1264;99693;-82
2023/10/08 03:32:16;;;;;;;15.90;5.80;;;;;;;10.61;100.00;100418.17;105498;1264;102083;-81
2023/10/08 03:35:04;;;;;;;11.10;5.50;;;;;;;10.58;100.00;100423.88;105494;1263;100386;-82
2023/10/08 03:37:50;;;;;;;12.10;5.50;;;;;;;10.56;100.00;100430.94;105440;1263;98070;-81
2023/10/08 03:40:43;;;;;;;11.50;4.70;;;;;;;10.55;100.00;100431.80;105646;1264;97978;-81
2023/10/08 03:43:43;;;;;;;16.90;5.30;;;;;;;10.52;100.00;100429.51;105553;1264;98006;-82
2023/10/08 03:46:30;;;;;;;10.70;4.70;;;;;;;10.48;100.00;100437.58;105440;1265;102105;-81
2023/10/08 03:52:07;;;;;;;16.20;4.80;;;;;;;10.40;100.00;100458.21;105534;1262;98689;-83
2023/10/08 03:55:20;;;;;;;10.30;4.10;;;;;;;10.35;100.00;100455.67;105722;1262;97861;-82
2023/10/08 03:58:27;;;;;;;7.70;3.20;;;;;;;10.29;100.00;100462.49;105849;1264;97885;-81
2023/10/08 04:01:18;;;;;;;7.30;2.70;;;;;;;10.26;100.00;100472.54;105639;1266;101338;-82
2023/10/08 04:04:04;;;;;;;8.20;3.30;;;;;;;10.19;100.00;100483.23;105442;1266;99911;-81
2023/10/08 04:06:51;;;;;;;5.70;2.80;;;;;;;10.15;100.00;100485.36;105422;1267;98068;-81
2023/10/08 04:09:39;;;;;;;7.00;2.90;;;;;;;10.10;100.00;100485.34;105504;1264;98886;-81
2023/10/08 04:12:27;;;;;;;7.20;2.00;;;;;;;10.07;100.00;100489.65;105516;1263;98411;-82
2023/10/08 04:15:16;;;;;;;9.80;2.60;;;;;;;10.02;100.00;100489.88;105541;1264;101449;-81
2023/10/08 04:18:02;;;;;;;5.80;2.10;;;;;;;9.97;100.00;100486.63;105579;1264;100031;-82
2023/10/08 04:21:00;;;;;;;8.30;2.10;;;;;;;9.94;100.00;100496.23;105737;1262;97978;-82
2023/10/08 04:23:53;;;;;;;7.80;2.10;;;;;;;9.90;99.95;100510.86;105658;1267;97930;-82
2023/10/08 04:26:40;;;;;;;8.80;2.00;;;;;;;9.85;99.25;100522.11;105612;1266;98096;-81
2023/10/08 04:29:26;;;;;;;4.70;1.60;;;;;;;9.75;98.24;100528.48;105906;1263;101482;-82
2023/10/08 04:32:12;;;;;;;2.30;1.20;;;;;;;9.67;97.80;100527.73;105777;1264;100407;-81
2023/10/08 04:34:58;;;;;;;4.10;1.60;;;;;;;9.60;97.09;100527.45;105534;1265;97950;-80
2023/10/08 04:37:43;;;;;;;3.50;1.20;;;;;;;9.54;96.58;100537.71;105608;1267;97971;-81
2023/10/08 04:40:33;;;;;;;3.40;1.40;;;;;;;9.46;96.33;100543.59;105602;1262;98056;-81
2023/10/08 04:43:30;;;;;;;3.60;1.20;;;;;;;9.38;95.82;100550.58;105794;1265;103021;-81
2023/10/08 04:46:19;;;;;;;2.90;1.00;;;;;;;9.30;95.48;100554.06;105448;1266;100915;-82
2023/10/08 04:49:23;;;;;;;2.20;1.10;;;;;;;9.23;94.93;100557.15;105608;1266;99598;-82
2023/10/08 04:52:13;;;;;;;3.00;1.30;;;;;;;9.14;94.27;100562.73;105479;1264;97900;-81
2023/10/08 04:55:07;;;;;;;3.10;0.90;;;;;;;9.05;93.62;100564.73;105600;1262;98521;-81
2023/10/08 04:57:53;;;;;;;8.90;1.10;;;;;;;8.98;93.29;100569.30;105437;1267;101429;-82
2023/10/08 05:00:44;;;;;;;3.10;0.70;;;;;;;8.92;93.55;100575.61;105569;1264;99165;-82
2023/10/08 05:03:43;;;;;;;2.50;0.80;;;;;;;8.91;93.38;100581.70;105589;1266;97983;-81
2023/10/08 05:09:23;;;;;;;1.30;0.90;;;;;;;8.82;92.74;100583.42;105577;1264;97954;-82
2023/10/08 05:12:10;;;;;;;1.40;1.00;;;;;;;8.78;92.51;100588.53;105775;1269;101453;-82
2023/10/08 05:15:21;;;;;;;2.10;0.90;;;;;;;8.73;92.09;100588.00;105855;1262;100593;-82
2023/10/08 05:21:25;;;;;;;2.70;0.70;;;;;;;8.67;91.51;100600.69;105775;1262;98950;-82
2023/10/08 05:24:08;;;;;;;1.00;0.70;;;;;;;8.60;91.07;100606.27;105469;1262;98515;-82
2023/10/08 05:27:15;;;;;;;3.40;0.90;;;;;;;8.55;90.77;100606.95;105438;1261;101572;-83
2023/10/08 05:30:16;;;;;;;2.10;0.90;;;;;;;8.50;90.51;100608.81;105214;1262;99150;-80
2023/10/08 05:35:49;;;;;;;2.90;0.50;;;;;;;8.44;89.91;100614.27;105456;1267;98642;-80
2023/10/08 05:41:51;;;;;;;1.20;0.60;;;;;;;8.40;89.48;100638.70;105385;1265;101362;-81
2023/10/08 05:44:39;;;;;;;2.10;0.50;;;;;;;8.36;89.13;100645.45;105379;1266;100121;-80
2023/10/08 05:53:14;;;;;;;2.30;0.60;;;;;;;8.32;88.72;100662.78;105579;1266;97904;-82
2023/10/08 05:56:28;;;;;;;2.50;0.90;;;;;;;8.32;88.37;100669.52;105569;1267;101353;-81
2023/10/08 05:59:18;;;;;;;3.50;0.70;;;;;;;8.31;88.12;100675.53;105518;1266;99084;-82
2023/10/08 06:02:06;;;;;;;1.50;1.00;;;;;;;8.31;87.75;100688.04;105379;1262;97986;-81
2023/10/08 06:08:10;;;;;;;1.00;0.70;;;;;;;8.32;87.42;100699.50;105810;1262;98502;-82
2023/10/08 06:10:57;;;;;;;4.70;0.90;;;;;;;8.32;87.04;100710.61;106049;1266;102283;-81
2023/10/08 06:13:45;;;;;;;1.20;0.70;;;;;;;8.33;86.58;100720.73;105383;1263;100323;-82
2023/10/08 06:16:41;;;;;;;2.90;0.80;;;;;;;8.35;86.81;100730.67;105603;1261;98073;-81
2023/10/08 06:19:27;;;;;;;1.30;0.60;;;;;;;8.36;86.52;100737.40;105469;1262;98572;-81
2023/10/08 06:22:13;;;;;;;4.90;0.60;;;;;;;8.38;86.25;100747.70;105522;1266;96012;-81
2023/10/08 06:25:17;;;;;;;2.00;0.60;;;;;;;8.41;86.30;100749.87;105517;1262;102158;-83
2023/10/08 06:28:03;;;;;;;2.30;0.80;;;;;;;8.45;85.97;100757.98;105643;1262;100380;-83
2023/10/08 06:30:53;;;;;;;2.00;0.70;;;;;;;8.48;85.65;100760.80;105518;1267;98625;-83
2023/10/08 06:33:40;;;;;;;2.10;0.70;;;;;;;8.51;85.23;100762.40;105435;1262;97992;-83
2023/10/08 06:36:28;;;;;;;1.90;0.60;;;;;;;8.53;84.67;100775.52;105534;1262;98689;-82
2023/10/08 06:39:18;;;;;;;1.70;0.70;;;;;;;8.55;83.91;100783.23;105510;1267;102115;-81
2023/10/08 06:42:04;;;;;;;2.00;0.50;;;;;;;8.57;83.83;100786.02;105588;1266;100907;-82
2023/10/08 06:44:57;;;;;;;2.00;0.70;;;;;;;8.61;83.32;100795.33;105600;1268;98767;-83
2023/10/08 06:47:45;;;;;;;1.00;0.60;;;;;;;8.64;82.51;100796.50;105457;1264;97967;-82
2023/10/08 06:50:35;;;;;;;1.40;0.60;;;;;;;8.67;82.15;100798.66;105464;1267;98565;-82
2023/10/08 06:53:21;;;;;;;1.40;0.60;;;;;;;8.69;81.97;100800.33;105357;1267;101436;-81
2023/10/08 06:56:12;;;;;;;2.30;0.90;;;;;;;8.73;81.54;100807.02;105599;1266;100688;-81
2023/10/08 06:58:59;;;;;;;1.90;0.80;;;;;;;8.76;81.16;100809.54;105743;1265;99166;-83
2023/10/08 07:01:50;;;;;;;3.40;0.60;;;;;;;8.79;80.78;100812.23;105566;1261;97984;-85
2023/10/08 07:04:36;;;;;;;3.40;0.70;;;;;;;8.82;80.15;100819.17;105706;1262;97966;-81
2023/10/08 07:07:22;;;;;;;2.20;0.40;;;;;;;8.85;79.86;100828.48;105508;1265;101439;-84
2023/10/08 07:10:10;;;;;;;1.30;0.50;;;;;;;8.87;78.86;100833.52;106073;1265;99190;-89
2023/10/08 07:12:56;;;;;;;1.20;0.60;;;;;;;8.89;78.22;100841.12;106260;1264;97969;-87
2023/10/08 07:15:44;;;;;;;1.90;0.80;;;;;;;8.95;78.44;100841.91;105996;1269;98035;-90
2023/10/08 07:18:33;;;;;;;1.40;0.50;;;;;;;9.00;77.93;100844.84;106213;1262;100053;-90
2023/10/08 07:21:28;;;;;;;1.70;0.60;;;;;;;9.06;77.96;100849.80;105757;1262;102016;-87
2023/10/08 07:24:21;;;;;;;2.70;0.70;;;;;;;9.10;77.75;100853.19;106136;1262;99215;-86
2023/10/08 07:27:08;;;;;;;0.80;0.40;;;;;;;9.14;76.82;100858.80;105862;1264;98013;-86
2023/10/08 07:29:55;;;;;;;2.80;0.70;;;;;;;9.16;76.49;100864.94;105878;1264;97993;-85
2023/10/08 07:32:41;;;;;;;1.80;0.70;;;;;;;9.18;76.06;100868.08;105600;1264;97990;-85
2023/10/08 07:35:30;;;;;;;2.30;0.60;;;;;;;9.21;74.87;100874.27;106254;1262;101458;-89
2023/10/08 07:38:17;;;;;;;2.00;0.60;;;;;;;9.24;74.24;100883.36;105823;1263;100374;-89
2023/10/08 07:41:05;;;;;;;1.70;0.70;;;;;;;9.26;74.34;100888.12;105787;1263;98761;-90
2023/10/08 07:43:58;;;;;;;1.50;0.40;;;;;;;9.31;73.83;100890.95;105504;1264;97965;-85
2023/10/08 07:46:44;;;;;;;2.10;0.60;;;;;;;9.36;73.78;100893.05;105707;1266;98515;-85
2023/10/08 07:49:31;;;;;;;4.00;1.00;;;;;;;9.41;73.28;100896.20;105787;1268;102076;-86
2023/10/08 07:52:16;;;;;;;1.20;0.60;;;;;;;9.45;73.21;100897.03;105774;1265;99184;-86
2023/10/08 07:55:04;;;;;;;1.70;0.60;;;;;;;9.49;72.71;100900.16;105496;1262;100201;-85
2023/10/08 07:57:52;;;;;;;1.40;0.50;;;;;;;9.49;71.57;100898.16;105566;1262;97967;-85
2023/10/08 08:03:53;;;;;;;1.00;0.50;;;;;;;9.51;70.94;100896.02;106219;1265;102758;-85
2023/10/08 08:06:38;;;;;;;1.10;0.50;;;;;;;9.53;70.72;100903.80;105654;1267;99748;-85
2023/10/08 08:09:26;;;;;;;1.10;0.50;;;;;;;9.58;71.00;100908.71;105310;1267;97978;-85
2023/10/08 08:12:12;;;;;;;1.80;0.50;;;;;;;9.64;71.20;100907.70;105365;1269;99224;-83
2023/10/08 08:15:03;;;;;;;2.30;0.90;;;;;;;9.69;70.50;100907.95;105861;1267;98466;-87
2023/10/08 08:17:48;;;;;;;3.40;0.90;;;;;;;9.70;70.21;100909.51;105438;1267;101248;-84
2023/10/08 08:20:47;;;;;;;2.40;0.60;;;;;;;9.74;70.61;100917.79;105323;1263;100192;-81
2023/10/08 08:23:33;;;;;;;2.40;0.40;;;;;;;9.78;69.65;100916.91;105391;1266;99120;-83
2023/10/08 08:26:28;;;;;;;1.60;0.70;;;;;;;9.83;69.20;100919.38;105407;1269;97974;-82
2023/10/08 08:29:15;;;;;;;1.10;0.50;;;;;;;9.86;68.96;100923.71;105874;1264;98451;-87
2023/10/08 08:32:04;;;;;;;2.60;0.50;;;;;;;9.92;69.10;100927.98;105926;1267;101257;-84
2023/10/08 08:34:53;;;;;;;2.00;0.60;;;;;;;9.93;67.23;100929.84;105607;1263;99875;-89
2023/10/08 08:37:39;;;;;;;1.40;0.70;;;;;;;9.94;67.19;100930.64;106140;1263;99947;-88
2023/10/08 08:40:26;;;;;;;1.40;0.50;;;;;;;9.97;67.17;100933.10;105757;1267;98011;-83
2023/10/08 08:43:13;;;;;;;1.00;0.40;;;;;;;9.98;66.78;100938.52;105696;1263;97976;-86
2023/10/08 08:46:00;;;;;;;2.10;0.60;;;;;;;10.02;67.67;100931.50;106030;1263;102297;-87
2023/10/08 08:48:47;;;;;;;1.30;0.50;;;;;;;10.11;67.65;100930.11;105697;1267;99168;-88
2023/10/08 08:51:35;;;;;;;1.30;0.60;;;;;;;10.15;66.43;100940.00;106009;1264;97935;-87
2023/10/08 08:54:21;;;;;;;3.00;1.40;;;;;;;10.18;66.27;100946.11;105790;1270;99148;-85
2023/10/08 08:57:13;;;;;;;0.90;0.50;;;;;;;10.18;65.31;100936.43;105364;1263;97955;-85
2023/10/08 09:00:08;;;;;;;5.20;0.80;;;;;;;10.20;65.68;100942.48;105812;1264;102138;-89
2023/10/08 09:02:55;;;;;;;3.00;0.70;;;;;;;10.24;65.48;100946.23;105229;1267;99804;-84
2023/10/08 09:05:42;;;;;;;2.00;0.80;;;;;;;10.28;65.56;100950.90;105221;1264;98071;-84
2023/10/08 09:08:29;;;;;;;1.90;0.50;;;;;;;10.34;65.68;100953.48;105305;1264;97891;-83
2023/10/08 09:11:16;;;;;;;1.10;0.60;;;;;;;10.36;64.66;100964.27;105347;1265;98469;-82
2023/10/08 09:14:02;;;;;;;3.10;1.00;;;;;;;10.35;64.00;100966.10;105433;1265;102422;-83
2023/10/08 09:16:49;;;;;;;1.20;0.60;;;;;;;10.32;62.51;100959.76;105181;1267;101514;-83
2023/10/08 09:19:39;;;;;;;0.90;0.60;;;;;;;10.31;62.95;100960.79;105263;1265;99294;-82
2023/10/08 09:22:25;;;;;;;0.80;0.60;;;;;;;10.34;63.31;100962.55;105432;1269;98022;-82
2023/10/08 09:25:14;;;;;;;1.30;0.50;;;;;;;10.39;62.71;100958.39;105264;1270;98099;-83
2023/10/08 09:28:02;;;;;;;1.50;0.80;;;;;;;10.42;62.54;100963.58;105357;1264;102405;-84
2023/10/08 09:30:48;;;;;;;4.10;0.60;;;;;;;10.46;62.22;100960.16;105441;1270;100835;-86
2023/10/08 09:33:34;;;;;;;1.50;0.40;;;;;;;10.48;62.51;100964.16;105409;1266;98051;-85
2023/10/08 09:36:31;;;;;;;0.60;0.40;;;;;;;10.52;61.97;100971.17;105387;1265;98078;-85
2023/10/08 09:39:23;;;;;;;1.60;0.60;;;;;;;10.57;60.94;100978.07;105528;1263;97948;-87
2023/10/08 09:42:11;;;;;;;0.90;0.50;;;;;;;10.62;61.05;100977.80;105421;1269;101436;-83
2023/10/08 09:44:57;;;;;;;2.10;1.00;;;;;;;10.72;62.17;100983.45;105347;1270;99185;-84
2023/10/08 09:47:51;;;;;;;0.80;0.60;;;;;;;10.79;60.66;100988.83;105397;1267;97973;-86
2023/10/08 09:50:40;;;;;;;1.30;0.60;;;;;;;10.79;59.56;100996.20;105221;1267;98035;-87
2023/10/08 09:53:53;;;;;;;0.80;0.40;;;;;;;10.77;59.30;100988.23;105348;1270;98500;-85
2023/10/08 09:56:39;;;;;;;1.20;0.80;;;;;;;10.77;59.89;100987.14;105392;1264;101423;-85
2023/10/08 09:59:29;;;;;;;0.90;0.70;;;;;;;10.83;60.47;100996.58;105440;1267;99201;-86
2023/10/08 10:02:20;;;;;;;0.70;0.50;;;;;;;10.86;59.04;100993.20;105510;1267;99061;-85
2023/10/08 10:05:21;;;;;;;3.30;0.70;;;;;;;10.84;58.54;100995.80;105358;1270;97928;-85
2023/10/08 10:08:29;;;;;;;0.60;0.50;;;;;;;10.84;58.67;100997.00;105421;1263;98407;-83
2023/10/08 10:11:15;;;;;;;3.40;0.70;;;;;;;10.86;58.22;101007.84;105351;1264;101405;-84
2023/10/08 10:14:05;;;;;;;3.30;0.50;;;;;;;10.88;58.25;101009.56;105428;1264;100258;-82
2023/10/08 10:17:15;;;;;;;4.00;1.10;;;;;;;10.92;58.05;101015.98;105324;1264;98000;-89
2023/10/08 10:20:06;;;;;;;1.10;0.60;;;;;;;10.96;57.73;101014.77;105539;1263;97963;-90
2023/10/08 10:22:55;;;;;;;1.00;0.40;;;;;;;11.00;56.63;101018.77;106013;1264;98572;-87
2023/10/08 10:25:43;;;;;;;1.10;0.60;;;;;;;11.01;56.68;101016.31;105872;1263;101498;-92
2023/10/08 10:28:30;;;;;;;0.60;0.40;;;;;;;11.05;56.35;101017.98;105948;1267;99207;-89
2023/10/08 10:31:19;;;;;;;0.70;0.30;;;;;;;11.08;56.36;101024.77;105984;1263;98948;-90
2023/10/08 10:34:08;;;;;;;1.10;0.40;;;;;;;11.13;55.73;101024.59;106001;1264;99228;-86
2023/10/08 10:37:02;;;;;;;2.70;0.70;;;;;;;11.16;55.20;101023.62;105957;1265;98506;-90
2023/10/08 10:40:00;;;;;;;1.50;0.50;;;;;;;11.18;55.12;101025.19;105840;1270;102581;-85
2023/10/08 10:42:53;;;;;;;1.90;0.50;;;;;;;11.21;55.24;101030.26;105715;1269;99320;-90
2023/10/08 10:45:43;;;;;;;1.60;0.50;;;;;;;11.24;54.55;101030.33;105718;1270;98582;-89
2023/10/08 10:48:34;;;;;;;2.50;0.50;;;;;;;11.25;54.42;101023.58;105978;1266;96251;-87
2023/10/08 10:51:20;;;;;;;1.80;0.50;;;;;;;11.31;54.76;101026.80;105654;1267;98503;-85
2023/10/08 10:54:09;;;;;;;1.20;0.50;;;;;;;11.35;53.94;101028.19;105549;1264;102735;-87
2023/10/08 10:57:17;;;;;;;2.00;0.40;;;;;;;11.37;54.26;101024.73;105441;1268;100343;-87
2023/10/08 11:03:25;;;;;;;3.50;0.80;;;;;;;11.46;53.24;101026.64;105484;1267;98022;-87
2023/10/08 11:06:15;;;;;;;1.30;0.50;;;;;;;11.46;52.40;101023.55;105232;1270;97998;-84
2023/10/08 11:09:05;;;;;;;3.20;0.50;;;;;;;11.50;53.43;101027.75;106321;1263;102449;-93
2023/10/08 11:12:12;;;;;;;1.30;0.50;;;;;;;11.57;53.04;101034.79;106247;1264;100378;-91
2023/10/08 11:14:58;;;;;;;1.80;0.60;;;;;;;11.59;52.79;101036.55;106629;1262;99079;-91
2023/10/08 11:17:47;;;;;;;2.20;0.50;;;;;;;11.58;52.09;101032.13;106582;1264;97879;-93
2023/10/08 11:20:39;;;;;;;1.60;0.70;;;;;;;11.60;51.86;101041.00;106299;1264;97972;-92
2023/10/08 11:23:41;;;;;;;1.20;0.60;;;;;;;11.63;51.31;101045.20;106368;1264;102617;-88
2023/10/08 11:26:38;;;;;;;2.30;0.30;;;;;;;11.66;51.09;101043.55;106037;1264;99174;-82
2023/10/08 11:29:27;;;;;;;1.60;0.40;;;;;;;11.68;50.46;101039.28;105868;1267;99646;-87
2023/10/08 11:32:17;;;;;;;3.70;0.60;;;;;;;11.69;50.84;101041.11;105694;1264;98170;-83
2023/10/08 11:35:15;;;;;;;0.70;0.60;;;;;;;11.72;50.29;101043.51;105879;1263;96279;-88
2023/10/08 11:38:02;;;;;;;1.00;0.50;;;;;;;11.72;49.78;101035.51;105865;1269;101481;-86
2023/10/08 11:40:49;;;;;;;0.70;0.40;;;;;;;11.75;49.50;101035.71;105593;1264;99091;-88
2023/10/08 11:43:35;;;;;;;1.00;0.60;;;;;;;11.78;49.40;101039.18;105745;1264;97984;-85
2023/10/08 11:46:38;;;;;;;1.40;0.40;;;;;;;11.83;49.47;101045.83;105812;1265;97986;-85
2023/10/08 11:49:25;;;;;;;4.00;0.70;;;;;;;11.86;47.86;101052.10;105778;1264;98022;-88
2023/10/08 11:52:11;;;;;;;1.40;0.50;;;;;;;11.80;47.20;101047.68;105763;1263;102583;-88
2023/10/08 11:54:56;;;;;;;1.20;0.60;;;;;;;11.79;47.22;101041.89;105708;1268;99197;-86
2023/10/08 11:57:45;;;;;;;1.20;0.50;;;;;;;11.83;48.20;101037.65;105916;1267;99632;-87
2023/10/08 12:00:31;;;;;;;5.00;0.50;;;;;;;11.89;48.29;101047.98;105839;1271;97983;-88
2023/10/08 12:03:18;;;;;;;1.30;0.90;;;;;;;11.92;48.44;101046.09;105914;1267;98052;-86
2023/10/08 12:06:05;;;;;;;0.70;0.40;;;;;;;11.97;48.74;101047.11;105929;1264;102554;-86
2023/10/08 12:08:53;;;;;;;2.10;0.60;;;;;;;12.02;49.36;101046.69;105712;1264;99088;-85
2023/10/08 12:11:39;;;;;;;0.60;0.40;;;;;;;12.08;49.26;101052.30;106115;1264;98248;-86
2023/10/08 12:14:30;;;;;;;2.30;0.80;;;;;;;12.13;48.68;101054.82;105721;1262;98011;-88
2023/10/08 12:17:17;;;;;;;2.10;0.70;;;;;;;12.17;48.42;101055.83;105904;1266;97950;-87
2023/10/08 12:20:12;;;;;;;0.40;0.40;;;;;;;12.15;47.45;101055.54;105908;1264;102058;-86
2023/10/08 12:22:59;;;;;;;0.70;0.60;;;;;;;12.06;47.57;101057.85;105893;1262;100506;-86
2023/10/08 12:25:51;;;;;;;2.10;0.40;;;;;;;12.05;47.68;101062.52;105899;1262;106769;-87
2023/10/08 12:28:36;;;;;;;1.00;0.50;;;;;;;11.98;46.94;101063.33;105644;1267;98398;-85
2023/10/08 12:31:22;;;;;;;0.90;0.50;;;;;;;11.96;47.53;101070.02;105845;1264;98487;-87
2023/10/08 12:34:11;;;;;;;2.30;0.50;;;;;;;12.01;48.12;101061.51;105691;1270;101454;-87
2023/10/08 12:36:57;;;;;;;3.80;0.70;;;;;;;12.06;47.74;101059.97;105887;1266;100528;-86
2023/10/08 12:39:59;;;;;;;2.90;0.60;;;;;;;12.11;47.71;101057.98;106050;1261;98069;-86
2023/10/08 12:42:45;;;;;;;1.10;0.50;;;;;;;12.18;48.36;101066.02;105854;1264;97875;-88
2023/10/08 12:45:31;;;;;;;2.20;0.60;;;;;;;12.23;48.24;101072.73;105698;1262;97998;-88
2023/10/08 12:48:16;;;;;;;1.60;0.60;;;;;;;12.30;47.98;101069.55;105919;1261;101353;-85
2023/10/08 12:51:05;;;;;;;1.50;0.60;;;;;;;12.30;47.28;101072.41;105687;1262;249363;-85
2023/10/08 12:54:03;;;;;;;0.90;0.50;;;;;;;12.32;47.12;101074.91;105702;1262;97986;-84
2023/10/08 12:56:48;;;;;;;1.70;0.80;;;;;;;12.30;46.24;101074.05;105709;1264;98516;-87
2023/10/08 12:59:34;;;;;;;0.80;0.50;;;;;;;12.26;46.20;101071.39;105438;1270;98506;-84
2023/10/08 13:02:20;;;;;;;1.10;0.60;;;;;;;12.26;46.34;101069.88;105626;1264;102737;-85
2023/10/08 13:05:15;;;;;;;2.50;0.70;;;;;;;12.30;46.62;101069.41;105631;1266;99180;-86
2023/10/08 13:08:09;;;;;;;0.80;0.60;;;;;;;12.35;46.72;101073.05;105436;1266;98100;-85
2023/10/08 13:11:00;;;;;;;1.80;0.70;;;;;;;12.33;46.65;101075.47;105782;1267;98058;-85
2023/10/08 13:13:47;;;;;;;1.10;0.70;;;;;;;12.27;46.23;101074.46;105691;1265;98576;-86
2023/10/08 13:16:36;;;;;;;3.30;0.70;;;;;;;12.15;46.29;101078.20;105494;1262;103079;-86
2023/10/08 13:19:26;;;;;;;1.00;0.50;;;;;;;12.06;46.64;101077.02;105643;1262;100469;-81
2023/10/08 13:22:19;;;;;;;5.40;0.70;;;;;;;12.01;46.13;101075.88;105653;1262;97996;-84
2023/10/08 13:25:07;;;;;;;1.80;0.50;;;;;;;11.97;45.61;101075.14;106315;1263;97987;-88
2023/10/08 13:27:54;;;;;;;3.00;0.70;;;;;;;11.99;46.04;101070.92;105546;1270;97901;-83
2023/10/08 13:30:40;;;;;;;1.20;0.70;;;;;;;12.06;46.09;101072.94;105486;1267;101374;-83
2023/10/08 13:33:26;;;;;;;1.20;0.60;;;;;;;12.12;46.05;101072.13;105681;1267;100390;-84